Time;durP1;ratioP1;P1;durP2;ratioP2;P2;SDS_P1;SDS_P2;PMS_P1;PMS_P2;Temp;Humidity;BMP_temperature;BMP_pressure;BME280_temperature;BME280_humidity;BME280_pressure;Samples;Min_cycle;Max_cycle;Signal;HPM_P1;HPM_P2
2022/11/24 00:01:07;;;;;;;67.10;41.42;;;4.80;99.90;;;;;;5081669;28;20220;-77
2022/11/24 00:03:35;;;;;;;55.65;37.90;;;4.80;99.90;;;;;;5059292;28;20228;-77
2022/11/24 00:06:06;;;;;;;63.78;40.88;;;4.90;99.90;;;;;;5052730;28;20221;-78
2022/11/24 00:08:33;;;;;;;61.85;41.15;;;4.90;99.90;;;;;;5044370;28;20270;-76
2022/11/24 00:11:05;;;;;;;65.65;41.47;;;4.90;99.90;;;;;;5052264;28;20303;-78
2022/11/24 00:13:33;;;;;;;74.47;44.63;;;4.90;99.90;;;;;;5052560;28;20233;-78
2022/11/24 00:16:10;;;;;;;64.65;40.42;;;4.90;99.90;;;;;;5054576;28;20221;-78
2022/11/24 00:18:38;;;;;;;61.17;42.47;;;5.00;99.90;;;;;;5052636;28;20658;-78
2022/11/24 00:21:06;;;;;;;73.78;43.88;;;5.00;99.90;;;;;;5050571;28;20218;-78
2022/11/24 00:23:35;;;;;;;60.88;42.30;;;5.00;99.90;;;;;;4992900;28;20231;-77
2022/11/24 00:26:07;;;;;;;61.80;40.95;;;5.00;99.90;;;;;;4960910;28;20233;-76
2022/11/24 00:28:36;;;;;;;68.85;42.42;;;5.00;99.90;;;;;;4973657;28;24020;-76
2022/11/24 00:31:04;;;;;;;63.38;40.70;;;5.10;99.90;;;;;;4966171;28;20225;-78
2022/11/24 00:33:34;;;;;;;69.90;44.92;;;5.10;99.90;;;;;;4963288;28;20217;-78
2022/11/24 00:36:01;;;;;;;65.40;42.25;;;5.20;99.90;;;;;;4965700;28;20253;-78
2022/11/24 00:38:29;;;;;;;60.47;39.75;;;5.20;99.90;;;;;;5002738;28;20239;-76
2022/11/24 00:41:03;;;;;;;64.45;41.50;;;5.20;99.90;;;;;;5043688;28;20274;-80
2022/11/24 00:43:30;;;;;;;66.28;42.15;;;5.20;99.90;;;;;;5049064;28;20257;-77
2022/11/24 00:46:01;;;;;;;60.75;39.42;;;5.20;99.90;;;;;;5050974;28;20225;-76
2022/11/24 00:48:29;;;;;;;63.10;43.10;;;5.20;99.90;;;;;;5050891;28;20290;-76
2022/11/24 00:50:59;;;;;;;63.35;41.00;;;5.20;99.90;;;;;;5056153;28;20225;-78
2022/11/24 00:53:26;;;;;;;59.65;41.25;;;5.30;99.90;;;;;;5055222;28;20311;-76
2022/11/24 00:55:56;;;;;;;66.53;43.60;;;5.20;99.90;;;;;;5050297;28;20228;-78
2022/11/24 00:58:24;;;;;;;66.38;42.67;;;5.20;99.90;;;;;;5047785;28;20221;-78
2022/11/24 01:00:52;;;;;;;57.92;40.75;;;5.30;99.90;;;;;;5065624;28;20315;-79
2022/11/24 01:03:21;;;;;;;77.10;43.28;;;5.20;99.90;;;;;;5046310;28;20228;-78
2022/11/24 01:05:48;;;;;;;66.07;41.45;;;5.30;99.90;;;;;;5042593;28;20232;-79
2022/11/24 01:08:18;;;;;;;68.57;43.83;;;5.20;99.90;;;;;;5052739;28;20248;-78
2022/11/24 01:10:46;;;;;;;68.78;42.58;;;5.30;99.90;;;;;;5053255;28;20252;-76
2022/11/24 01:13:13;;;;;;;67.45;44.08;;;5.40;99.90;;;;;;5047563;28;20216;-75
2022/11/24 01:15:43;;;;;;;59.13;41.50;;;5.30;99.90;;;;;;5053504;28;20255;-76
2022/11/24 01:18:12;;;;;;;57.33;39.95;;;5.30;99.90;;;;;;5053662;28;20566;-76
2022/11/24 01:20:39;;;;;;;57.78;41.00;;;5.40;99.90;;;;;;5053493;28;20233;-78
2022/11/24 01:23:06;;;;;;;61.85;40.45;;;5.40;99.90;;;;;;5060065;28;20419;-76
2022/11/24 01:25:35;;;;;;;58.17;40.08;;;5.40;99.90;;;;;;5081619;28;20224;-78
2022/11/24 01:28:03;;;;;;;59.85;41.05;;;5.50;99.90;;;;;;5080145;28;20320;-76
2022/11/24 01:30:31;;;;;;;58.05;38.28;;;5.50;99.90;;;;;;5086709;28;20227;-76
2022/11/24 01:32:58;;;;;;;63.33;40.22;;;5.50;99.90;;;;;;5053170;28;20216;-76
2022/11/24 01:35:25;;;;;;;66.63;41.08;;;5.50;99.90;;;;;;5078793;28;20228;-78
2022/11/24 01:37:52;;;;;;;69.57;41.97;;;5.50;99.90;;;;;;5052630;28;20247;-78
2022/11/24 01:40:19;;;;;;;56.20;40.65;;;5.50;99.90;;;;;;5070110;28;20234;-77
2022/11/24 01:42:50;;;;;;;65.18;39.65;;;5.30;99.90;;;;;;5069417;28;20220;-76
2022/11/24 01:45:32;;;;;;;61.30;40.95;;;5.30;99.90;;;;;;5047164;28;20227;-77
2022/11/24 01:48:02;;;;;;;64.20;40.08;;;5.30;99.90;;;;;;5053058;28;20235;-78
2022/11/24 01:50:29;;;;;;;53.85;37.15;;;5.30;99.90;;;;;;5066473;28;20232;-78
2022/11/24 01:52:57;;;;;;;62.70;39.75;;;5.30;99.90;;;;;;5066326;28;20227;-78
2022/11/24 01:55:28;;;;;;;59.00;38.33;;;5.30;99.90;;;;;;5065928;28;20692;-78
2022/11/24 01:58:02;;;;;;;57.85;38.30;;;5.30;99.90;;;;;;5062335;28;20225;-78
2022/11/24 02:00:30;;;;;;;57.17;36.90;;;5.30;99.90;;;;;;5053290;28;20619;-76
2022/11/24 02:02:58;;;;;;;54.55;37.65;;;5.30;99.90;;;;;;5046865;28;20335;-77
2022/11/24 02:05:30;;;;;;;60.67;36.45;;;5.30;99.90;;;;;;5053036;28;20224;-78
2022/11/24 02:08:00;;;;;;;55.60;38.45;;;5.30;99.90;;;;;;5049537;28;20242;-78
2022/11/24 02:10:27;;;;;;;55.58;36.28;;;5.30;99.90;;;;;;5053265;28;20228;-77
2022/11/24 02:12:59;;;;;;;56.28;35.95;;;5.40;99.90;;;;;;5048162;28;20229;-77
2022/11/24 02:15:26;;;;;;;49.90;34.47;;;5.40;99.90;;;;;;5052726;28;20221;-77
2022/11/24 02:17:55;;;;;;;51.20;34.70;;;5.30;99.90;;;;;;5051370;28;20224;-79
2022/11/24 02:20:23;;;;;;;56.85;35.55;;;5.40;99.90;;;;;;5047028;28;20646;-79
2022/11/24 02:22:54;;;;;;;63.53;41.22;;;5.40;99.90;;;;;;5062490;28;20228;-79
2022/11/24 02:25:29;;;;;;;61.45;37.58;;;5.30;99.90;;;;;;5051941;28;20236;-76
2022/11/24 02:28:00;;;;;;;55.65;38.17;;;5.30;99.90;;;;;;5051166;28;20282;-76
2022/11/24 02:30:28;;;;;;;54.30;35.00;;;5.30;99.90;;;;;;5046120;28;20669;-77
2022/11/24 02:32:54;;;;;;;52.78;35.67;;;5.30;99.90;;;;;;5061772;28;20671;-76
2022/11/24 02:35:22;;;;;;;56.95;36.35;;;5.30;99.90;;;;;;5052500;28;20221;-78
2022/11/24 02:37:49;;;;;;;55.72;36.75;;;5.20;99.90;;;;;;5052718;28;20232;-79
2022/11/24 02:40:18;;;;;;;59.80;40.20;;;5.30;99.90;;;;;;5052927;28;20225;-79
2022/11/24 02:42:47;;;;;;;64.10;39.38;;;5.30;99.90;;;;;;5052577;28;20247;-79
2022/11/24 02:45:16;;;;;;;58.85;38.50;;;5.30;99.90;;;;;;5050130;28;20222;-76
2022/11/24 02:47:43;;;;;;;54.97;35.92;;;5.30;99.90;;;;;;5056748;28;20590;-79
2022/11/24 02:50:10;;;;;;;60.83;37.00;;;5.20;99.90;;;;;;5042410;28;20229;-79
2022/11/24 02:52:37;;;;;;;50.97;33.42;;;5.20;99.90;;;;;;5050800;28;20732;-79
2022/11/24 02:55:05;;;;;;;62.75;37.72;;;5.20;99.90;;;;;;5050651;28;20244;-79
2022/11/24 02:57:32;;;;;;;58.60;39.80;;;5.20;99.90;;;;;;5052838;28;20212;-80
2022/11/24 02:59:59;;;;;;;59.08;36.13;;;5.20;99.90;;;;;;5052030;28;20235;-80
2022/11/24 03:02:28;;;;;;;58.05;37.90;;;5.10;99.90;;;;;;5052672;28;20220;-77
2022/11/24 03:04:57;;;;;;;53.00;35.45;;;5.10;99.90;;;;;;5041605;28;20263;-77
2022/11/24 03:07:24;;;;;;;60.47;36.88;;;5.00;99.90;;;;;;5072168;28;20223;-77
2022/11/24 03:09:51;;;;;;;57.38;34.58;;;5.00;99.90;;;;;;5056019;28;20224;-77
2022/11/24 03:12:19;;;;;;;54.83;36.35;;;4.90;99.90;;;;;;5074289;28;20568;-77
2022/11/24 03:14:46;;;;;;;57.58;38.33;;;4.80;99.90;;;;;;5057325;28;20252;-76
2022/11/24 03:17:13;;;;;;;54.20;36.58;;;4.80;99.90;;;;;;5072099;28;20272;-79
2022/11/24 03:19:41;;;;;;;49.60;34.08;;;4.80;99.90;;;;;;5058057;28;20235;-79
2022/11/24 03:22:08;;;;;;;46.17;33.03;;;4.90;99.90;;;;;;5052385;28;20224;-77
2022/11/24 03:24:37;;;;;;;49.67;35.60;;;4.90;99.90;;;;;;5052824;28;20275;-76
2022/11/24 03:27:04;;;;;;;50.08;35.70;;;5.00;99.90;;;;;;5060582;28;20232;-76
2022/11/24 03:29:31;;;;;;;56.13;35.58;;;5.00;99.90;;;;;;5077880;28;20223;-77
2022/11/24 03:31:58;;;;;;;49.65;33.15;;;5.00;99.90;;;;;;5064517;28;20228;-79
2022/11/24 03:34:25;;;;;;;56.67;34.78;;;5.10;99.90;;;;;;5052719;28;20362;-80
2022/11/24 03:36:54;;;;;;;46.95;33.70;;;5.10;99.90;;;;;;5068613;28;20690;-80
2022/11/24 03:39:21;;;;;;;59.65;35.70;;;5.10;99.90;;;;;;5090660;28;20249;-77
2022/11/24 03:41:50;;;;;;;53.13;33.33;;;5.10;99.90;;;;;;5091583;28;20219;-79
2022/11/24 03:44:17;;;;;;;58.28;39.10;;;5.10;99.90;;;;;;5092326;28;20618;-77
2022/11/24 03:46:44;;;;;;;48.88;31.08;;;5.20;99.90;;;;;;5093198;28;20230;-79
2022/11/24 03:49:11;;;;;;;47.45;31.98;;;5.20;99.90;;;;;;5092075;28;20231;-77
2022/11/24 03:51:38;;;;;;;46.50;32.33;;;5.20;99.90;;;;;;5092575;28;20219;-77
2022/11/24 03:54:07;;;;;;;47.65;31.75;;;5.20;99.90;;;;;;5092459;28;20219;-77
2022/11/24 03:56:34;;;;;;;46.20;29.95;;;5.20;99.90;;;;;;5091310;28;20212;-76
2022/11/24 03:59:01;;;;;;;51.45;34.03;;;5.30;99.90;;;;;;5091921;28;20227;-77
2022/11/24 04:01:29;;;;;;;49.65;32.05;;;5.30;99.90;;;;;;5095516;28;20223;-79
2022/11/24 04:03:56;;;;;;;49.35;31.30;;;5.30;99.90;;;;;;5096769;28;20234;-77
2022/11/24 04:06:23;;;;;;;47.58;32.50;;;5.30;99.90;;;;;;5095724;28;20268;-77
2022/11/24 04:08:53;;;;;;;49.38;32.13;;;5.30;99.90;;;;;;5095427;28;20227;-79
2022/11/24 04:14:02;;;;;;;49.15;32.90;;;5.30;99.90;;;;;;5051774;28;20524;-79
2022/11/24 04:16:29;;;;;;;47.42;31.85;;;5.30;99.90;;;;;;5096125;28;20303;-79
2022/11/24 04:18:56;;;;;;;48.45;30.60;;;5.40;99.90;;;;;;5096373;28;20257;-76
2022/11/24 04:21:23;;;;;;;43.70;30.65;;;5.40;99.90;;;;;;5096265;28;20219;-78
2022/11/24 04:23:50;;;;;;;47.58;32.05;;;5.40;99.90;;;;;;5096077;28;20294;-76
2022/11/24 04:26:17;;;;;;;49.80;31.92;;;5.40;99.90;;;;;;5095199;28;20230;-76
2022/11/24 04:28:46;;;;;;;47.95;30.42;;;5.40;99.90;;;;;;5096180;28;20292;-76
2022/11/24 04:31:13;;;;;;;42.92;31.92;;;5.40;99.90;;;;;;5095278;28;20261;-76
2022/11/24 04:33:40;;;;;;;50.30;32.08;;;5.40;99.90;;;;;;5095144;28;20288;-76
2022/11/24 04:36:08;;;;;;;50.97;32.25;;;5.40;99.90;;;;;;5094994;28;20288;-77
2022/11/24 04:38:35;;;;;;;43.83;29.85;;;5.30;99.90;;;;;;5095885;28;20297;-76
2022/11/24 04:41:02;;;;;;;55.47;32.00;;;5.40;99.90;;;;;;5096023;28;20246;-78
2022/11/24 04:43:29;;;;;;;47.05;29.83;;;5.40;99.90;;;;;;5095641;28;20215;-78
2022/11/24 04:46:00;;;;;;;46.75;32.35;;;5.40;99.90;;;;;;5096069;28;20219;-77
2022/11/24 04:48:27;;;;;;;46.78;33.00;;;5.30;99.90;;;;;;5095236;28;20223;-77
2022/11/24 04:50:54;;;;;;;48.58;33.67;;;5.30;99.90;;;;;;5095642;28;20269;-79
2022/11/24 04:53:21;;;;;;;53.03;35.80;;;5.30;99.90;;;;;;5095241;28;20234;-79
2022/11/24 04:55:49;;;;;;;48.28;31.35;;;5.40;99.90;;;;;;5095401;28;20219;-79
2022/11/24 04:58:16;;;;;;;44.35;30.13;;;5.40;99.90;;;;;;5094445;28;20577;-77
2022/11/24 05:00:43;;;;;;;51.50;33.72;;;5.40;99.90;;;;;;5095242;28;20238;-79
2022/11/24 05:03:11;;;;;;;43.80;28.30;;;5.40;99.90;;;;;;5095317;28;20223;-78
2022/11/24 05:05:38;;;;;;;45.72;29.35;;;5.50;99.90;;;;;;5095322;28;20223;-76
2022/11/24 05:08:05;;;;;;;46.28;28.98;;;5.50;99.90;;;;;;5095120;28;20310;-77
2022/11/24 05:10:36;;;;;;;41.17;27.95;;;5.40;99.90;;;;;;5093935;28;20223;-76
2022/11/24 05:13:04;;;;;;;44.08;28.98;;;5.50;99.90;;;;;;5094299;28;20273;-77
2022/11/24 05:15:31;;;;;;;41.17;27.92;;;5.40;99.90;;;;;;5094753;28;20256;-80
2022/11/24 05:17:58;;;;;;;43.22;29.73;;;5.40;99.90;;;;;;5095560;28;20612;-80
2022/11/24 05:20:26;;;;;;;41.80;28.17;;;5.40;99.90;;;;;;5094576;28;20223;-79
2022/11/24 05:22:53;;;;;;;42.28;27.73;;;5.40;99.90;;;;;;5095394;28;20230;-79
2022/11/24 05:25:21;;;;;;;49.35;31.15;;;5.40;99.90;;;;;;5093969;28;20696;-79
2022/11/24 05:27:48;;;;;;;47.30;29.63;;;5.40;99.90;;;;;;5095145;28;20250;-79
2022/11/24 05:30:15;;;;;;;49.25;30.08;;;5.30;99.90;;;;;;5093869;28;20227;-79
2022/11/24 05:32:42;;;;;;;44.00;29.50;;;5.20;99.90;;;;;;5094781;28;20223;-79
2022/11/24 05:35:09;;;;;;;42.45;29.98;;;5.20;99.90;;;;;;5094719;28;20680;-78
2022/11/24 05:37:38;;;;;;;42.75;29.13;;;5.20;99.90;;;;;;5094368;28;20302;-79
2022/11/24 05:40:06;;;;;;;40.95;26.75;;;5.30;99.90;;;;;;5094420;28;20324;-79
2022/11/24 05:42:42;;;;;;;42.47;28.52;;;5.30;99.90;;;;;;5094440;28;20268;-77
2022/11/24 05:45:12;;;;;;;42.03;28.70;;;5.30;99.90;;;;;;5094633;28;20275;-77
2022/11/24 05:47:40;;;;;;;47.08;29.00;;;5.30;99.90;;;;;;5094275;28;20635;-77
2022/11/24 05:50:08;;;;;;;45.08;30.42;;;5.30;99.90;;;;;;5094335;28;20228;-77
2022/11/24 05:52:36;;;;;;;42.22;29.48;;;5.20;99.90;;;;;;5094038;28;20245;-76
2022/11/24 05:55:05;;;;;;;40.65;27.45;;;5.30;99.90;;;;;;5093786;28;20377;-76
2022/11/24 05:57:33;;;;;;;43.55;29.35;;;5.30;99.90;;;;;;5094054;28;20219;-76
2022/11/24 06:00:02;;;;;;;40.90;29.33;;;5.30;99.90;;;;;;5093656;28;20223;-78
2022/11/24 06:02:31;;;;;;;39.90;27.50;;;5.30;99.90;;;;;;5093674;28;20224;-77
2022/11/24 06:04:58;;;;;;;42.55;29.80;;;5.30;99.90;;;;;;5094211;28;20223;-76
2022/11/24 06:07:25;;;;;;;46.17;28.67;;;5.20;99.90;;;;;;5082808;28;20669;-78
2022/11/24 06:09:52;;;;;;;41.28;27.35;;;5.30;99.90;;;;;;5093140;28;20223;-78
2022/11/24 06:12:21;;;;;;;42.35;29.20;;;5.30;99.90;;;;;;5094239;28;20587;-78
2022/11/24 06:14:48;;;;;;;50.05;32.67;;;5.30;99.90;;;;;;5085335;28;20349;-79
2022/11/24 06:17:15;;;;;;;40.40;27.17;;;5.30;99.90;;;;;;5094028;28;20215;-79
2022/11/24 06:19:45;;;;;;;38.83;28.05;;;5.20;99.90;;;;;;5093559;28;20255;-79
2022/11/24 06:22:12;;;;;;;45.55;27.60;;;5.20;99.90;;;;;;5093858;28;20263;-81
2022/11/24 06:24:39;;;;;;;41.35;27.20;;;5.20;99.90;;;;;;5092847;28;20219;-77
2022/11/24 06:27:06;;;;;;;45.05;29.40;;;5.20;99.90;;;;;;5093798;28;20224;-79
2022/11/24 06:29:35;;;;;;;41.30;27.38;;;5.30;99.90;;;;;;5093345;28;20254;-78
2022/11/24 06:32:02;;;;;;;43.63;27.42;;;5.30;99.90;;;;;;5094070;28;20227;-79
2022/11/24 06:34:29;;;;;;;37.35;25.92;;;5.30;99.90;;;;;;5092838;28;20230;-79
2022/11/24 06:36:56;;;;;;;45.33;27.98;;;5.30;99.90;;;;;;5093969;28;20340;-79
2022/11/24 06:39:23;;;;;;;38.75;26.98;;;5.30;99.90;;;;;;5093676;28;20311;-79
2022/11/24 06:41:50;;;;;;;44.53;28.50;;;5.40;99.90;;;;;;5093325;28;20534;-79
2022/11/24 06:44:17;;;;;;;36.60;25.70;;;5.40;99.90;;;;;;5093458;28;20223;-77
2022/11/24 06:46:45;;;;;;;35.50;25.30;;;5.40;99.90;;;;;;5093200;28;20227;-77
2022/11/24 06:49:12;;;;;;;37.88;25.73;;;5.40;99.90;;;;;;5093531;28;20641;-79
2022/11/24 06:51:40;;;;;;;40.50;27.75;;;5.40;99.90;;;;;;5093120;28;20222;-79
2022/11/24 06:54:08;;;;;;;39.78;25.00;;;5.30;99.90;;;;;;5093580;28;20223;-79
2022/11/24 06:56:37;;;;;;;40.13;27.08;;;5.30;99.90;;;;;;5093182;28;20276;-79
2022/11/24 06:59:04;;;;;;;39.95;28.35;;;5.30;99.90;;;;;;5082633;28;20307;-79
2022/11/24 07:05:02;;;;;;;36.33;24.60;;;5.30;99.90;;;;;;5083372;28;20214;-79
2022/11/24 07:07:30;;;;;;;38.85;28.75;;;5.20;99.90;;;;;;5092827;28;20238;-79
2022/11/24 07:09:57;;;;;;;35.50;24.30;;;5.30;99.90;;;;;;5093586;28;20742;-80
2022/11/24 07:12:24;;;;;;;34.80;24.45;;;5.30;99.90;;;;;;5092562;28;20310;-79
2022/11/24 07:14:51;;;;;;;34.33;24.67;;;5.30;99.90;;;;;;5093157;28;20242;-77
2022/11/24 07:17:18;;;;;;;34.85;24.58;;;5.30;99.90;;;;;;5092182;28;20677;-77
2022/11/24 07:19:45;;;;;;;35.70;24.17;;;5.30;99.90;;;;;;5093076;28;20280;-76
2022/11/24 07:22:16;;;;;;;37.05;25.27;;;5.30;99.90;;;;;;5093268;28;20234;-79
2022/11/24 07:24:43;;;;;;;33.97;25.02;;;5.30;99.90;;;;;;5082634;28;20223;-79
2022/11/24 07:27:10;;;;;;;37.15;26.88;;;5.40;99.90;;;;;;5092821;28;20261;-79
2022/11/24 07:29:37;;;;;;;41.65;25.95;;;5.40;99.90;;;;;;5081507;28;20257;-79
2022/11/24 07:32:06;;;;;;;42.25;28.00;;;5.40;99.90;;;;;;5093559;28;20219;-79
2022/11/24 07:34:34;;;;;;;37.38;26.55;;;5.40;99.90;;;;;;5092760;28;20223;-79
2022/11/24 07:37:04;;;;;;;37.75;25.35;;;5.40;99.90;;;;;;5093714;28;20605;-78
2022/11/24 07:39:34;;;;;;;37.17;26.08;;;5.50;99.90;;;;;;5097629;28;20257;-78
2022/11/24 07:42:02;;;;;;;39.20;25.65;;;5.50;99.90;;;;;;5097315;28;20668;-79
2022/11/24 07:44:29;;;;;;;41.45;28.10;;;5.50;99.90;;;;;;5096200;28;20223;-79
2022/11/24 07:46:57;;;;;;;37.05;25.35;;;5.50;99.90;;;;;;5096953;28;20215;-80
2022/11/24 07:49:24;;;;;;;34.88;26.05;;;5.50;99.90;;;;;;5096115;28;20313;-80
2022/11/24 07:51:51;;;;;;;48.10;28.83;;;5.50;99.90;;;;;;5085193;28;20659;-79
2022/11/24 07:54:18;;;;;;;38.53;26.40;;;5.50;99.90;;;;;;5095862;28;20623;-77
2022/11/24 07:56:48;;;;;;;41.45;28.85;;;5.50;99.90;;;;;;5095765;28;20273;-77
2022/11/24 07:59:23;;;;;;;36.10;26.08;;;5.60;99.90;;;;;;5095893;28;20258;-80
2022/11/24 08:01:50;;;;;;;38.75;26.65;;;5.60;99.90;;;;;;5096624;28;20283;-78
2022/11/24 08:04:17;;;;;;;36.80;26.95;;;5.60;99.90;;;;;;5096615;28;20302;-80
2022/11/24 08:06:44;;;;;;;38.85;25.48;;;5.60;99.90;;;;;;5084521;28;20613;-80
2022/11/24 08:09:11;;;;;;;38.10;27.13;;;5.60;99.90;;;;;;5085178;28;20223;-79
2022/11/24 08:11:42;;;;;;;36.67;26.38;;;5.60;99.90;;;;;;5096255;28;20227;-78
2022/11/24 08:14:12;;;;;;;37.38;24.88;;;5.70;99.90;;;;;;5078323;28;20227;-79
2022/11/24 08:16:55;;;;;;;40.55;25.15;;;5.70;99.90;;;;;;5096508;28;20226;-78
2022/11/24 08:19:25;;;;;;;41.38;25.80;;;5.80;99.90;;;;;;5096553;28;20750;-77
2022/11/24 08:21:54;;;;;;;37.45;26.58;;;5.70;99.90;;;;;;5096386;28;20211;-76
2022/11/24 08:24:23;;;;;;;36.97;23.85;;;5.80;99.90;;;;;;5096331;28;20280;-79
2022/11/24 08:26:50;;;;;;;40.85;28.67;;;5.80;99.90;;;;;;5095749;28;20549;-79
2022/11/24 08:29:22;;;;;;;37.83;25.60;;;5.80;99.90;;;;;;5085479;28;20257;-79
2022/11/24 08:31:49;;;;;;;38.60;25.50;;;5.90;99.90;;;;;;5095743;28;20326;-78
2022/11/24 08:34:16;;;;;;;37.53;26.20;;;5.90;99.90;;;;;;5086190;28;20234;-77
2022/11/24 08:36:43;;;;;;;41.28;25.98;;;5.90;99.90;;;;;;5095676;28;20237;-77
2022/11/24 08:39:12;;;;;;;42.85;26.77;;;5.90;99.90;;;;;;5095844;28;20325;-76
2022/11/24 08:41:39;;;;;;;35.08;25.10;;;5.90;99.90;;;;;;5095422;28;20725;-76
2022/11/24 08:44:07;;;;;;;36.80;26.80;;;5.90;99.90;;;;;;5095522;28;20220;-76
2022/11/24 08:46:35;;;;;;;38.58;25.20;;;5.90;99.90;;;;;;5094552;28;20688;-77
2022/11/24 08:49:05;;;;;;;33.15;24.67;;;5.90;99.90;;;;;;5081937;28;20306;-76
2022/11/24 08:51:32;;;;;;;35.67;25.30;;;6.00;99.90;;;;;;5093869;28;20227;-76
2022/11/24 08:54:01;;;;;;;39.50;27.02;;;6.00;99.90;;;;;;5095100;28;20306;-76
2022/11/24 08:56:31;;;;;;;42.63;27.48;;;5.90;99.90;;;;;;5095251;28;20223;-76
2022/11/24 08:58:59;;;;;;;36.38;23.70;;;5.90;99.90;;;;;;5094440;28;20260;-78
2022/11/24 09:01:27;;;;;;;35.60;23.80;;;5.90;99.90;;;;;;5095140;28;20219;-80
2022/11/24 09:03:56;;;;;;;35.95;24.90;;;5.90;99.90;;;;;;5094643;28;20285;-78
2022/11/24 09:06:25;;;;;;;39.10;25.85;;;6.00;99.90;;;;;;5095279;28;20292;-77
2022/11/24 09:08:54;;;;;;;36.50;25.75;;;6.00;99.90;;;;;;5094588;28;20300;-78
2022/11/24 09:11:21;;;;;;;39.30;26.67;;;6.10;99.90;;;;;;5095365;28;20223;-78
2022/11/24 09:13:49;;;;;;;35.08;26.77;;;6.10;99.90;;;;;;5094576;28;20265;-76
2022/11/24 09:16:18;;;;;;;40.45;27.60;;;6.20;99.90;;;;;;5094769;28;20273;-76
2022/11/24 09:18:46;;;;;;;36.40;27.63;;;6.20;99.90;;;;;;5094799;28;20227;-80
2022/11/24 09:21:17;;;;;;;36.63;25.55;;;6.20;99.90;;;;;;5094809;28;20679;-80
2022/11/24 09:23:44;;;;;;;36.75;24.23;;;6.20;99.90;;;;;;5095164;28;20219;-78
2022/11/24 09:26:14;;;;;;;36.92;27.15;;;6.20;99.90;;;;;;5093341;28;20219;-80
2022/11/24 09:28:42;;;;;;;35.17;24.88;;;6.30;99.90;;;;;;5094838;28;20223;-80
2022/11/24 09:31:11;;;;;;;40.63;27.02;;;6.30;99.90;;;;;;5094079;28;20548;-78
2022/11/24 09:33:39;;;;;;;37.78;25.30;;;6.30;99.90;;;;;;5094673;28;20222;-80
2022/11/24 09:36:09;;;;;;;36.97;25.52;;;6.40;99.90;;;;;;5094016;28;20220;-80
2022/11/24 09:38:37;;;;;;;37.50;26.20;;;6.40;99.90;;;;;;5094730;28;20216;-77
2022/11/24 09:41:23;;;;;;;40.30;27.25;;;6.40;99.90;;;;;;5093911;28;20220;-78
2022/11/24 09:44:08;;;;;;;36.75;25.48;;;6.40;99.90;;;;;;5083940;28;20610;-77
2022/11/24 09:46:43;;;;;;;41.63;27.13;;;6.50;99.90;;;;;;5093440;28;20243;-76
2022/11/24 09:49:15;;;;;;;36.65;24.90;;;6.50;99.90;;;;;;5083397;28;20313;-79
2022/11/24 09:51:47;;;;;;;34.75;26.58;;;6.50;99.90;;;;;;5094148;28;20246;-76
2022/11/24 09:54:22;;;;;;;36.60;26.20;;;6.50;99.90;;;;;;5093600;28;20219;-79
2022/11/24 09:56:51;;;;;;;39.60;28.38;;;6.60;99.90;;;;;;5093808;28;20229;-80
2022/11/24 09:59:20;;;;;;;36.28;26.15;;;6.60;99.90;;;;;;5092448;28;20223;-80
2022/11/24 10:01:49;;;;;;;34.88;26.45;;;6.60;99.90;;;;;;5094240;28;20216;-78
2022/11/24 10:04:19;;;;;;;35.20;25.20;;;6.60;99.90;;;;;;5093575;28;20238;-78
2022/11/24 10:06:58;;;;;;;32.95;23.85;;;6.70;99.90;;;;;;5094264;28;20263;-78
2022/11/24 10:09:43;;;;;;;30.50;23.70;;;6.70;99.90;;;;;;5093327;28;20261;-76
2022/11/24 10:12:22;;;;;;;32.60;25.00;;;6.80;99.90;;;;;;5093175;28;20223;-78
2022/11/24 10:15:04;;;;;;;28.58;23.95;;;6.80;99.90;;;;;;5093809;28;20276;-76
2022/11/24 10:17:49;;;;;;;33.80;24.35;;;6.80;99.90;;;;;;5093067;28;20230;-77
2022/11/24 10:20:22;;;;;;;31.75;25.50;;;6.90;99.90;;;;;;5093100;28;20231;-76
2022/11/24 10:23:00;;;;;;;31.35;23.77;;;6.90;99.90;;;;;;5093960;28;20356;-77
2022/11/24 10:25:36;;;;;;;43.03;26.73;;;7.00;99.90;;;;;;5093627;28;20222;-77
2022/11/24 10:28:05;;;;;;;37.20;27.10;;;7.00;99.90;;;;;;5093554;28;20291;-79
2022/11/24 10:30:32;;;;;;;34.17;25.55;;;6.80;99.90;;;;;;5093034;28;20231;-79
2022/11/24 10:33:04;;;;;;;35.35;27.02;;;6.80;99.90;;;;;;5093615;28;20219;-79
2022/11/24 10:35:37;;;;;;;35.08;26.63;;;6.90;99.90;;;;;;5093525;28;20302;-79
2022/11/24 10:38:30;;;;;;;27.40;23.75;;;6.90;99.90;;;;;;5085114;28;20619;-79
2022/11/24 10:41:02;;;;;;;34.78;26.25;;;7.00;99.90;;;;;;5093502;28;20247;-76
2022/11/24 10:44:16;;;;;;;;;;;;;;;;;;;;;
2022/11/24 10:54:22;;;;;;;34.75;24.35;;;7.10;99.90;;;;;;5068516;28;20269;-77
2022/11/24 10:57:33;;;;;;;41.53;26.08;;;7.10;99.90;;;;;;5010447;28;20219;-77
2022/11/24 11:10:46;;;;;;;34.38;26.15;;;7.20;99.90;;;;;;4851085;29;20278;-79
2022/11/24 11:17:32;;;;;;;;;;;;;;;;;;;;;
2022/11/24 11:23:16;;;;;;;32.67;25.17;;;7.40;99.90;;;;;;5031121;28;20227;-79
2022/11/24 11:25:45;;;;;;;40.47;28.50;;;7.50;99.90;;;;;;5096946;28;20306;-79
2022/11/24 11:28:33;;;;;;;37.70;28.00;;;7.50;99.90;;;;;;5096991;28;20516;-77
2022/11/24 11:31:04;;;;;;;36.08;27.38;;;7.60;99.90;;;;;;5090363;28;20223;-78
2022/11/24 11:33:35;;;;;;;37.33;28.58;;;7.70;99.90;;;;;;5096637;28;20241;-79
2022/11/24 11:36:09;;;;;;;41.05;29.50;;;7.70;99.90;;;;;;5096507;28;20219;-77
2022/11/24 11:38:39;;;;;;;38.05;28.67;;;7.80;99.90;;;;;;5096534;28;20223;-77
2022/11/24 11:41:20;;;;;;;40.25;28.55;;;7.80;99.90;;;;;;5096241;28;20223;-79
2022/11/24 11:43:54;;;;;;;41.05;28.50;;;7.90;99.90;;;;;;5096783;28;20594;-76
2022/11/24 11:46:27;;;;;;;35.95;26.40;;;7.90;99.90;;;;;;5096283;28;20223;-77
2022/11/24 11:48:54;;;;;;;40.47;27.75;;;8.00;99.90;;;;;;5096734;28;20246;-78
2022/11/24 11:51:42;;;;;;;31.63;25.85;;;8.00;99.90;;;;;;5087448;28;20243;-78
2022/11/24 11:54:17;;;;;;;34.85;27.85;;;8.10;99.90;;;;;;5096201;28;20231;-78
2022/11/24 11:56:52;;;;;;;44.08;30.60;;;8.10;99.90;;;;;;5095776;28;20238;-77
2022/11/24 11:59:40;;;;;;;33.33;26.10;;;8.10;99.90;;;;;;5093695;28;20223;-76
2022/11/24 12:02:44;;;;;;;37.17;26.77;;;8.10;99.90;;;;;;5096007;28;20277;-76
2022/11/24 12:08:56;;;;;;;37.13;26.40;;;8.10;99.90;;;;;;5074549;28;20227;-80
2022/11/24 12:12:35;;;;;;;35.70;26.08;;;8.10;99.90;;;;;;5071557;28;20593;-77
2022/11/24 12:15:55;;;;;;;;;;;;;;;;;;;;;
2022/11/24 12:18:36;;;;;;;27.88;24.77;;;8.20;99.90;;;;;;5073798;28;20483;-77
2022/11/24 12:21:12;;;;;;;32.03;25.40;;;8.20;99.90;;;;;;5095471;28;20273;-77
2022/11/24 12:23:48;;;;;;;30.42;24.02;;;8.20;99.90;;;;;;5096100;28;20253;-77
2022/11/24 12:26:25;;;;;;;28.92;23.30;;;8.30;99.90;;;;;;5095816;28;20591;-78
2022/11/24 12:29:27;;;;;;;36.38;25.23;;;8.30;99.90;;;;;;5096138;28;20348;-77
2022/11/24 12:32:07;;;;;;;32.28;22.88;;;8.40;99.90;;;;;;5096339;28;20246;-76
2022/11/24 12:34:46;;;;;;;26.25;21.52;;;8.40;99.90;;;;;;5096839;28;20219;-77
2022/11/24 12:37:43;;;;;;;32.80;24.98;;;8.40;99.90;;;;;;5096020;28;20222;-77
2022/11/24 12:40:16;;;;;;;28.75;21.30;;;8.40;99.90;;;;;;5095740;28;20223;-76
2022/11/24 12:42:52;;;;;;;28.63;23.00;;;8.50;99.90;;;;;;5095000;28;20228;-78
2022/11/24 12:45:44;;;;;;;29.85;24.40;;;8.50;99.90;;;;;;5094287;28;20215;-77
2022/11/24 12:48:41;;;;;;;31.90;23.70;;;8.50;99.90;;;;;;5088645;28;20227;-78
2022/11/24 12:51:17;;;;;;;28.63;23.67;;;8.50;99.90;;;;;;5094766;28;20219;-77
2022/11/24 12:54:27;;;;;;;;;;;;;;;;;;;;;
2022/11/24 12:57:07;;;;;;;28.00;22.27;;;8.60;99.90;;;;;;5082649;28;20690;-77
2022/11/24 12:59:44;;;;;;;27.90;21.45;;;8.60;99.90;;;;;;5084538;28;20864;-79
2022/11/24 13:02:23;;;;;;;29.10;21.50;;;8.70;99.90;;;;;;5094594;28;20219;-77
2022/11/24 13:04:55;;;;;;;26.08;22.83;;;8.60;99.90;;;;;;5094597;28;20564;-78
2022/11/24 13:07:44;;;;;;;26.20;23.40;;;8.70;99.90;;;;;;5095070;28;20537;-76
2022/11/24 13:10:28;;;;;;;26.92;22.80;;;8.70;99.90;;;;;;5094219;28;20668;-77
2022/11/24 13:12:56;;;;;;;30.77;23.15;;;8.80;99.90;;;;;;5094667;28;20238;-79
2022/11/24 13:15:24;;;;;;;26.80;22.08;;;8.70;99.90;;;;;;5095228;28;20230;-79
2022/11/24 13:17:51;;;;;;;27.33;22.90;;;8.80;99.90;;;;;;5090959;28;20722;-79
2022/11/24 13:20:25;;;;;;;30.30;23.13;;;8.80;99.90;;;;;;5094919;28;20227;-77
2022/11/24 13:22:58;;;;;;;26.27;21.45;;;8.90;99.90;;;;;;5094969;28;20223;-79
2022/11/24 13:28:53;;;;;;;30.15;24.05;;;9.00;99.90;;;;;;5053379;28;20328;-77
2022/11/24 13:31:23;;;;;;;27.25;21.63;;;9.00;99.90;;;;;;5094256;28;20235;-77
2022/11/24 13:34:15;;;;;;;23.23;20.75;;;9.00;99.90;;;;;;5093960;28;20691;-77
2022/11/24 13:36:53;;;;;;;24.92;18.98;;;9.00;99.90;;;;;;5091194;28;20223;-78
2022/11/24 13:39:22;;;;;;;26.15;21.67;;;9.10;99.90;;;;;;5084045;28;20284;-78